Tegucigalpa, Honduras
Current Conditions -  °F | °C
As of 6:00 AM on Thursday 29 Jan 2015 (Local Time) from MHTG Reporting Station
Rain Showers Rain Showers  
Wind Chill: 16°   Ceiling: 2200
Heat Index: 16°   Visibility: 4mi
Dew Point: 15°   Wind: 12mph
Humidity: 94%   Direction: 340°NNW
Pressure: 30.09"   Gusts: NA
Location:  14.09°N, 87.22°W
Report Text: MHTG 291200Z 34010KT 6000 VCSH FEW008 BKN022 16/15 Q1019 A3009REDZ NOSIG
Loading
Personal Weather Stations






























Interactive Weather Map New forecast layout! Learn more

10-Day Weather Forecast

Advertisements
Track Severe Weather on mobile